sensor_id;sensor_type;location;lat;lon;timestamp;temperature;humidity
25554;DHT22;13446;50.926;5.332;2022-07-18T00:01:34;21.40;64.10
25554;DHT22;13446;50.926;5.332;2022-07-18T00:04:01;21.50;65.00
25554;DHT22;13446;50.926;5.332;2022-07-18T00:06:27;21.60;65.00
25554;DHT22;13446;50.926;5.332;2022-07-18T00:08:53;21.60;65.70
25554;DHT22;13446;50.926;5.332;2022-07-18T00:11:19;21.60;65.80
25554;DHT22;13446;50.926;5.332;2022-07-18T00:13:45;21.60;65.40
25554;DHT22;13446;50.926;5.332;2022-07-18T00:16:10;21.70;63.60
25554;DHT22;13446;50.926;5.332;2022-07-18T00:18:36;21.70;62.90
25554;DHT22;13446;50.926;5.332;2022-07-18T00:21:02;21.60;63.50
25554;DHT22;13446;50.926;5.332;2022-07-18T00:23:27;21.70;63.10
25554;DHT22;13446;50.926;5.332;2022-07-18T00:25:53;21.70;63.30
25554;DHT22;13446;50.926;5.332;2022-07-18T00:28:19;21.60;64.00
25554;DHT22;13446;50.926;5.332;2022-07-18T00:30:45;21.40;65.10
25554;DHT22;13446;50.926;5.332;2022-07-18T00:33:11;21.20;66.20
25554;DHT22;13446;50.926;5.332;2022-07-18T00:35:39;21.20;66.30
25554;DHT22;13446;50.926;5.332;2022-07-18T00:38:04;21.30;66.80
25554;DHT22;13446;50.926;5.332;2022-07-18T00:40:31;21.40;67.20
25554;DHT22;13446;50.926;5.332;2022-07-18T00:42:57;21.50;67.70
25554;DHT22;13446;50.926;5.332;2022-07-18T00:45:23;21.50;68.60
25554;DHT22;13446;50.926;5.332;2022-07-18T00:47:49;21.50;69.40
25554;DHT22;13446;50.926;5.332;2022-07-18T00:50:20;21.40;70.10
25554;DHT22;13446;50.926;5.332;2022-07-18T00:52:47;21.40;70.40
25554;DHT22;13446;50.926;5.332;2022-07-18T00:55:13;21.30;71.20
25554;DHT22;13446;50.926;5.332;2022-07-18T00:57:41;21.30;71.80
25554;DHT22;13446;50.926;5.332;2022-07-18T01:00:09;21.30;72.60
25554;DHT22;13446;50.926;5.332;2022-07-18T01:02:54;21.30;73.60
25554;DHT22;13446;50.926;5.332;2022-07-18T01:05:21;21.30;73.90
25554;DHT22;13446;50.926;5.332;2022-07-18T01:07:46;21.20;73.90
25554;DHT22;13446;50.926;5.332;2022-07-18T01:10:12;21.20;75.00
25554;DHT22;13446;50.926;5.332;2022-07-18T01:12:38;21.10;76.00
25554;DHT22;13446;50.926;5.332;2022-07-18T01:15:05;21.10;76.60
25554;DHT22;13446;50.926;5.332;2022-07-18T01:17:31;21.10;77.30
25554;DHT22;13446;50.926;5.332;2022-07-18T01:19:57;20.90;78.60
25554;DHT22;13446;50.926;5.332;2022-07-18T01:22:23;20.70;80.20
25554;DHT22;13446;50.926;5.332;2022-07-18T01:24:49;20.70;80.70
25554;DHT22;13446;50.926;5.332;2022-07-18T01:27:19;20.60;81.90
25554;DHT22;13446;50.926;5.332;2022-07-18T01:29:47;20.60;82.10
25554;DHT22;13446;50.926;5.332;2022-07-18T01:32:13;20.60;82.80
25554;DHT22;13446;50.926;5.332;2022-07-18T01:34:39;20.60;84.30
25554;DHT22;13446;50.926;5.332;2022-07-18T01:37:05;20.60;84.30
25554;DHT22;13446;50.926;5.332;2022-07-18T01:39:31;20.50;85.40
25554;DHT22;13446;50.926;5.332;2022-07-18T01:42:01;20.40;86.70
25554;DHT22;13446;50.926;5.332;2022-07-18T01:44:27;20.40;87.00
25554;DHT22;13446;50.926;5.332;2022-07-18T01:46:53;20.40;86.90
25554;DHT22;13446;50.926;5.332;2022-07-18T01:49:19;20.50;87.60
25554;DHT22;13446;50.926;5.332;2022-07-18T01:51:46;20.40;89.70
25554;DHT22;13446;50.926;5.332;2022-07-18T01:54:13;20.20;90.60
25554;DHT22;13446;50.926;5.332;2022-07-18T01:56:39;20.20;91.10
25554;DHT22;13446;50.926;5.332;2022-07-18T01:59:04;20.10;91.70
25554;DHT22;13446;50.926;5.332;2022-07-18T02:01:30;20.00;92.60
25554;DHT22;13446;50.926;5.332;2022-07-18T02:03:56;20.00;93.00
25554;DHT22;13446;50.926;5.332;2022-07-18T02:06:22;19.90;93.50
25554;DHT22;13446;50.926;5.332;2022-07-18T02:08:47;19.80;94.30
25554;DHT22;13446;50.926;5.332;2022-07-18T02:11:13;19.90;94.50
25554;DHT22;13446;50.926;5.332;2022-07-18T02:13:49;19.90;94.80
25554;DHT22;13446;50.926;5.332;2022-07-18T02:16:14;19.70;95.20
25554;DHT22;13446;50.926;5.332;2022-07-18T02:18:40;19.70;96.10
25554;DHT22;13446;50.926;5.332;2022-07-18T02:21:06;19.90;95.50
25554;DHT22;13446;50.926;5.332;2022-07-18T02:23:33;20.00;95.40
25554;DHT22;13446;50.926;5.332;2022-07-18T02:25:59;20.00;94.90
25554;DHT22;13446;50.926;5.332;2022-07-18T02:28:24;19.90;95.40
25554;DHT22;13446;50.926;5.332;2022-07-18T02:30:50;19.80;95.70
25554;DHT22;13446;50.926;5.332;2022-07-18T02:33:16;19.80;95.90
25554;DHT22;13446;50.926;5.332;2022-07-18T02:35:42;19.70;96.10
25554;DHT22;13446;50.926;5.332;2022-07-18T02:38:08;19.60;96.00
25554;DHT22;13446;50.926;5.332;2022-07-18T02:40:34;19.40;96.70
25554;DHT22;13446;50.926;5.332;2022-07-18T02:42:59;19.30;97.40
25554;DHT22;13446;50.926;5.332;2022-07-18T02:45:25;19.20;97.60
25554;DHT22;13446;50.926;5.332;2022-07-18T02:47:51;19.20;97.70
25554;DHT22;13446;50.926;5.332;2022-07-18T02:50:17;19.20;97.70
25554;DHT22;13446;50.926;5.332;2022-07-18T02:52:43;19.20;98.20
25554;DHT22;13446;50.926;5.332;2022-07-18T02:55:10;19.20;97.80
25554;DHT22;13446;50.926;5.332;2022-07-18T02:57:38;19.30;97.00
25554;DHT22;13446;50.926;5.332;2022-07-18T03:00:09;19.50;96.10
25554;DHT22;13446;50.926;5.332;2022-07-18T03:02:35;19.60;95.80
25554;DHT22;13446;50.926;5.332;2022-07-18T03:05:03;19.60;95.50
25554;DHT22;13446;50.926;5.332;2022-07-18T03:07:29;19.60;95.40
25554;DHT22;13446;50.926;5.332;2022-07-18T03:09:55;19.60;95.40
25554;DHT22;13446;50.926;5.332;2022-07-18T03:12:21;19.60;95.40
25554;DHT22;13446;50.926;5.332;2022-07-18T03:14:47;19.80;95.10
25554;DHT22;13446;50.926;5.332;2022-07-18T03:17:13;19.70;95.00
25554;DHT22;13446;50.926;5.332;2022-07-18T03:19:38;19.60;95.50
25554;DHT22;13446;50.926;5.332;2022-07-18T03:22:04;19.50;95.90
25554;DHT22;13446;50.926;5.332;2022-07-18T03:24:30;19.40;96.10
25554;DHT22;13446;50.926;5.332;2022-07-18T03:26:59;19.40;96.70
25554;DHT22;13446;50.926;5.332;2022-07-18T03:29:25;19.20;97.40
25554;DHT22;13446;50.926;5.332;2022-07-18T03:31:50;19.20;97.90
25554;DHT22;13446;50.926;5.332;2022-07-18T03:34:16;19.10;98.00
25554;DHT22;13446;50.926;5.332;2022-07-18T03:36:42;18.90;98.70
25554;DHT22;13446;50.926;5.332;2022-07-18T03:39:09;18.80;99.00
25554;DHT22;13446;50.926;5.332;2022-07-18T03:41:35;18.80;99.00
25554;DHT22;13446;50.926;5.332;2022-07-18T03:44:02;18.70;99.20
25554;DHT22;13446;50.926;5.332;2022-07-18T03:46:28;18.70;99.30
25554;DHT22;13446;50.926;5.332;2022-07-18T03:48:53;18.70;99.30
25554;DHT22;13446;50.926;5.332;2022-07-18T03:51:20;18.60;99.50
25554;DHT22;13446;50.926;5.332;2022-07-18T03:53:46;18.60;99.90
25554;DHT22;13446;50.926;5.332;2022-07-18T03:56:12;18.60;99.90
25554;DHT22;13446;50.926;5.332;2022-07-18T03:58:37;18.50;99.90
25554;DHT22;13446;50.926;5.332;2022-07-18T04:01:04;18.50;99.90
25554;DHT22;13446;50.926;5.332;2022-07-18T04:03:30;18.50;99.90
25554;DHT22;13446;50.926;5.332;2022-07-18T04:05:56;18.60;99.90
25554;DHT22;13446;50.926;5.332;2022-07-18T04:08:21;18.60;99.90
25554;DHT22;13446;50.926;5.332;2022-07-18T04:10:47;18.60;99.90
25554;DHT22;13446;50.926;5.332;2022-07-18T04:13:13;18.60;99.90
25554;DHT22;13446;50.926;5.332;2022-07-18T04:15:39;18.60;99.90
25554;DHT22;13446;50.926;5.332;2022-07-18T04:18:06;18.70;99.90
25554;DHT22;13446;50.926;5.332;2022-07-18T04:20:33;18.70;99.90
25554;DHT22;13446;50.926;5.332;2022-07-18T04:23:03;18.90;99.90
25554;DHT22;13446;50.926;5.332;2022-07-18T04:25:40;18.80;99.90
25554;DHT22;13446;50.926;5.332;2022-07-18T04:28:09;18.70;99.90
25554;DHT22;13446;50.926;5.332;2022-07-18T04:30:35;18.60;99.90
25554;DHT22;13446;50.926;5.332;2022-07-18T04:33:04;18.60;99.90
25554;DHT22;13446;50.926;5.332;2022-07-18T04:35:31;18.80;99.90
25554;DHT22;13446;50.926;5.332;2022-07-18T04:37:58;18.90;99.90
25554;DHT22;13446;50.926;5.332;2022-07-18T04:40:23;18.90;99.90
25554;DHT22;13446;50.926;5.332;2022-07-18T04:42:50;18.90;99.90
25554;DHT22;13446;50.926;5.332;2022-07-18T04:45:16;19.10;99.90
25554;DHT22;13446;50.926;5.332;2022-07-18T04:47:43;19.10;99.90
25554;DHT22;13446;50.926;5.332;2022-07-18T04:50:09;19.00;99.90
25554;DHT22;13446;50.926;5.332;2022-07-18T04:52:37;19.00;99.90
25554;DHT22;13446;50.926;5.332;2022-07-18T04:55:03;19.20;99.90
25554;DHT22;13446;50.926;5.332;2022-07-18T04:57:29;19.20;99.90
25554;DHT22;13446;50.926;5.332;2022-07-18T04:59:54;19.20;99.90
25554;DHT22;13446;50.926;5.332;2022-07-18T05:02:20;19.30;99.90
25554;DHT22;13446;50.926;5.332;2022-07-18T05:04:45;19.30;99.90
25554;DHT22;13446;50.926;5.332;2022-07-18T05:07:11;19.40;99.90
25554;DHT22;13446;50.926;5.332;2022-07-18T05:09:37;19.50;99.90
25554;DHT22;13446;50.926;5.332;2022-07-18T05:12:02;19.40;99.90
25554;DHT22;13446;50.926;5.332;2022-07-18T05:14:28;19.40;99.90
25554;DHT22;13446;50.926;5.332;2022-07-18T05:16:54;19.50;99.90
25554;DHT22;13446;50.926;5.332;2022-07-18T05:19:19;19.50;99.90
25554;DHT22;13446;50.926;5.332;2022-07-18T05:21:45;19.80;99.90
25554;DHT22;13446;50.926;5.332;2022-07-18T05:24:11;20.60;99.10
25554;DHT22;13446;50.926;5.332;2022-07-18T05:26:37;21.40;96.70
25554;DHT22;13446;50.926;5.332;2022-07-18T05:29:03;22.30;94.60
25554;DHT22;13446;50.926;5.332;2022-07-18T05:31:28;22.90;91.70
25554;DHT22;13446;50.926;5.332;2022-07-18T05:33:54;23.60;89.90
25554;DHT22;13446;50.926;5.332;2022-07-18T05:36:20;24.40;84.60
25554;DHT22;13446;50.926;5.332;2022-07-18T05:38:45;25.00;79.70
25554;DHT22;13446;50.926;5.332;2022-07-18T05:41:11;25.50;75.30
25554;DHT22;13446;50.926;5.332;2022-07-18T05:43:37;25.90;73.80
25554;DHT22;13446;50.926;5.332;2022-07-18T05:46:03;26.60;69.60
25554;DHT22;13446;50.926;5.332;2022-07-18T05:48:29;27.10;65.10
25554;DHT22;13446;50.926;5.332;2022-07-18T05:50:54;27.60;62.10
25554;DHT22;13446;50.926;5.332;2022-07-18T05:53:20;27.90;59.80
25554;DHT22;13446;50.926;5.332;2022-07-18T05:55:46;28.30;57.40
25554;DHT22;13446;50.926;5.332;2022-07-18T05:58:13;28.70;55.80
25554;DHT22;13446;50.926;5.332;2022-07-18T06:00:38;29.00;55.30
25554;DHT22;13446;50.926;5.332;2022-07-18T06:03:05;29.30;54.20
25554;DHT22;13446;50.926;5.332;2022-07-18T06:05:31;29.50;53.70
25554;DHT22;13446;50.926;5.332;2022-07-18T06:07:57;29.90;52.60
25554;DHT22;13446;50.926;5.332;2022-07-18T06:10:24;29.60;52.10
25554;DHT22;13446;50.926;5.332;2022-07-18T06:12:51;29.60;52.20
25554;DHT22;13446;50.926;5.332;2022-07-18T06:15:16;29.60;51.40
25554;DHT22;13446;50.926;5.332;2022-07-18T06:17:43;30.10;50.90
25554;DHT22;13446;50.926;5.332;2022-07-18T06:20:09;30.60;50.10
25554;DHT22;13446;50.926;5.332;2022-07-18T06:22:36;31.10;48.90
25554;DHT22;13446;50.926;5.332;2022-07-18T06:25:02;31.20;48.20
25554;DHT22;13446;50.926;5.332;2022-07-18T06:27:28;31.50;47.00
25554;DHT22;13446;50.926;5.332;2022-07-18T06:29:53;32.40;46.20
25554;DHT22;13446;50.926;5.332;2022-07-18T06:32:19;32.10;45.60
25554;DHT22;13446;50.926;5.332;2022-07-18T06:34:45;32.40;45.10
25554;DHT22;13446;50.926;5.332;2022-07-18T06:37:11;32.70;44.00
25554;DHT22;13446;50.926;5.332;2022-07-18T06:39:37;32.60;43.60
25554;DHT22;13446;50.926;5.332;2022-07-18T06:42:03;32.70;43.70
25554;DHT22;13446;50.926;5.332;2022-07-18T06:44:28;33.00;43.30
25554;DHT22;13446;50.926;5.332;2022-07-18T06:46:55;33.40;42.20
25554;DHT22;13446;50.926;5.332;2022-07-18T06:49:23;33.60;41.90
25554;DHT22;13446;50.926;5.332;2022-07-18T06:51:52;33.60;41.20
25554;DHT22;13446;50.926;5.332;2022-07-18T06:54:18;33.90;40.60
25554;DHT22;13446;50.926;5.332;2022-07-18T06:56:45;34.10;39.80
25554;DHT22;13446;50.926;5.332;2022-07-18T06:59:12;34.50;39.00
25554;DHT22;13446;50.926;5.332;2022-07-18T07:01:37;34.60;39.00
25554;DHT22;13446;50.926;5.332;2022-07-18T07:04:03;35.20;38.20
25554;DHT22;13446;50.926;5.332;2022-07-18T07:06:29;35.40;37.60
25554;DHT22;13446;50.926;5.332;2022-07-18T07:08:55;35.90;36.90
25554;DHT22;13446;50.926;5.332;2022-07-18T07:11:20;36.60;36.80
25554;DHT22;13446;50.926;5.332;2022-07-18T07:13:47;36.80;35.90
25554;DHT22;13446;50.926;5.332;2022-07-18T07:16:13;36.60;35.90
25554;DHT22;13446;50.926;5.332;2022-07-18T07:18:39;37.10;35.60
25554;DHT22;13446;50.926;5.332;2022-07-18T07:21:06;36.80;35.50
25554;DHT22;13446;50.926;5.332;2022-07-18T07:23:34;37.10;35.20
25554;DHT22;13446;50.926;5.332;2022-07-18T07:25:59;37.10;35.10
25554;DHT22;13446;50.926;5.332;2022-07-18T07:28:25;37.70;34.70
25554;DHT22;13446;50.926;5.332;2022-07-18T07:30:51;38.20;34.30
25554;DHT22;13446;50.926;5.332;2022-07-18T07:33:17;38.00;34.20
25554;DHT22;13446;50.926;5.332;2022-07-18T07:35:44;37.90;34.20
25554;DHT22;13446;50.926;5.332;2022-07-18T07:38:10;38.50;34.20
25554;DHT22;13446;50.926;5.332;2022-07-18T07:40:43;39.10;33.50
25554;DHT22;13446;50.926;5.332;2022-07-18T07:43:13;39.40;33.10
25554;DHT22;13446;50.926;5.332;2022-07-18T07:45:39;39.70;32.70
25554;DHT22;13446;50.926;5.332;2022-07-18T07:48:06;39.90;32.40
25554;DHT22;13446;50.926;5.332;2022-07-18T07:50:32;40.00;32.50
25554;DHT22;13446;50.926;5.332;2022-07-18T07:52:58;39.80;32.40
25554;DHT22;13446;50.926;5.332;2022-07-18T07:55:24;40.10;32.50
25554;DHT22;13446;50.926;5.332;2022-07-18T07:57:50;40.60;32.30
25554;DHT22;13446;50.926;5.332;2022-07-18T08:00:16;41.00;31.30
25554;DHT22;13446;50.926;5.332;2022-07-18T08:02:55;41.30;30.80
25554;DHT22;13446;50.926;5.332;2022-07-18T08:05:24;41.50;30.70
25554;DHT22;13446;50.926;5.332;2022-07-18T08:07:50;41.40;31.10
25554;DHT22;13446;50.926;5.332;2022-07-18T08:10:18;41.70;30.80
25554;DHT22;13446;50.926;5.332;2022-07-18T08:12:44;42.10;30.20
25554;DHT22;13446;50.926;5.332;2022-07-18T08:15:10;42.50;30.00
25554;DHT22;13446;50.926;5.332;2022-07-18T08:17:37;42.80;29.90
25554;DHT22;13446;50.926;5.332;2022-07-18T08:20:03;43.00;28.70
25554;DHT22;13446;50.926;5.332;2022-07-18T08:22:29;42.70;28.60
25554;DHT22;13446;50.926;5.332;2022-07-18T08:24:55;42.80;28.40
25554;DHT22;13446;50.926;5.332;2022-07-18T08:27:20;43.00;28.40
25554;DHT22;13446;50.926;5.332;2022-07-18T08:29:46;43.00;29.00
25554;DHT22;13446;50.926;5.332;2022-07-18T08:32:11;43.00;27.70
25554;DHT22;13446;50.926;5.332;2022-07-18T08:34:39;43.50;28.20
25554;DHT22;13446;50.926;5.332;2022-07-18T08:37:04;43.50;27.40
25554;DHT22;13446;50.926;5.332;2022-07-18T08:39:30;43.50;27.10
25554;DHT22;13446;50.926;5.332;2022-07-18T08:42:00;43.20;27.50
25554;DHT22;13446;50.926;5.332;2022-07-18T08:44:27;42.90;26.90
25554;DHT22;13446;50.926;5.332;2022-07-18T08:46:53;43.50;27.00
25554;DHT22;13446;50.926;5.332;2022-07-18T08:49:22;43.00;26.70
25554;DHT22;13446;50.926;5.332;2022-07-18T08:51:48;43.30;27.00
25554;DHT22;13446;50.926;5.332;2022-07-18T08:54:13;42.30;26.80
25554;DHT22;13446;50.926;5.332;2022-07-18T08:56:40;43.20;27.00
25554;DHT22;13446;50.926;5.332;2022-07-18T08:59:06;43.70;27.00
25554;DHT22;13446;50.926;5.332;2022-07-18T09:01:32;42.50;26.90
25554;DHT22;13446;50.926;5.332;2022-07-18T09:03:58;42.20;27.00
25554;DHT22;13446;50.926;5.332;2022-07-18T09:06:49;43.00;27.40
25554;DHT22;13446;50.926;5.332;2022-07-18T09:09:16;44.20;26.90
25554;DHT22;13446;50.926;5.332;2022-07-18T09:11:50;44.70;25.40
25554;DHT22;13446;50.926;5.332;2022-07-18T09:17:12;44.40;25.40
25554;DHT22;13446;50.926;5.332;2022-07-18T09:19:55;44.60;25.10
25554;DHT22;13446;50.926;5.332;2022-07-18T09:22:23;45.40;25.00
25554;DHT22;13446;50.926;5.332;2022-07-18T09:32:36;44.80;25.60
25554;DHT22;13446;50.926;5.332;2022-07-18T09:35:10;45.30;25.80
25554;DHT22;13446;50.926;5.332;2022-07-18T09:37:36;45.00;25.30
25554;DHT22;13446;50.926;5.332;2022-07-18T09:40:22;44.50;25.80
25554;DHT22;13446;50.926;5.332;2022-07-18T09:43:00;45.30;25.30
25554;DHT22;13446;50.926;5.332;2022-07-18T09:45:28;43.10;25.70
25554;DHT22;13446;50.926;5.332;2022-07-18T09:47:57;43.50;25.90
25554;DHT22;13446;50.926;5.332;2022-07-18T09:50:27;43.70;25.90
25554;DHT22;13446;50.926;5.332;2022-07-18T09:55:27;44.90;25.30
25554;DHT22;13446;50.926;5.332;2022-07-18T09:58:14;45.40;25.60
25554;DHT22;13446;50.926;5.332;2022-07-18T10:00:40;45.90;25.30
25554;DHT22;13446;50.926;5.332;2022-07-18T10:03:07;43.40;26.10
25554;DHT22;13446;50.926;5.332;2022-07-18T10:05:35;43.70;26.50
25554;DHT22;13446;50.926;5.332;2022-07-18T10:08:03;44.30;25.80
25554;DHT22;13446;50.926;5.332;2022-07-18T10:10:30;44.50;26.00
25554;DHT22;13446;50.926;5.332;2022-07-18T10:12:58;44.70;25.50
25554;DHT22;13446;50.926;5.332;2022-07-18T10:15:28;45.30;25.20
25554;DHT22;13446;50.926;5.332;2022-07-18T10:17:55;44.70;25.90
25554;DHT22;13446;50.926;5.332;2022-07-18T10:20:35;45.30;25.30
25554;DHT22;13446;50.926;5.332;2022-07-18T10:23:12;43.90;24.70
25554;DHT22;13446;50.926;5.332;2022-07-18T10:26:05;43.70;26.10
25554;DHT22;13446;50.926;5.332;2022-07-18T10:28:31;45.30;24.70
25554;DHT22;13446;50.926;5.332;2022-07-18T10:31:12;46.30;24.40
25554;DHT22;13446;50.926;5.332;2022-07-18T10:33:43;46.50;24.40
25554;DHT22;13446;50.926;5.332;2022-07-18T10:36:21;46.80;23.80
25554;DHT22;13446;50.926;5.332;2022-07-18T10:41:33;47.30;23.90
25554;DHT22;13446;50.926;5.332;2022-07-18T10:43:58;46.90;23.60
25554;DHT22;13446;50.926;5.332;2022-07-18T10:46:24;46.50;23.50
25554;DHT22;13446;50.926;5.332;2022-07-18T10:48:52;47.10;23.60
25554;DHT22;13446;50.926;5.332;2022-07-18T10:51:19;47.60;23.00
25554;DHT22;13446;50.926;5.332;2022-07-18T10:59:19;48.80;22.70
25554;DHT22;13446;50.926;5.332;2022-07-18T11:01:51;47.80;22.40
25554;DHT22;13446;50.926;5.332;2022-07-18T11:04:33;48.00;21.90
25554;DHT22;13446;50.926;5.332;2022-07-18T11:09:38;46.30;23.10
25554;DHT22;13446;50.926;5.332;2022-07-18T11:12:31;46.60;23.20
25554;DHT22;13446;50.926;5.332;2022-07-18T11:15:11;47.00;22.30
25554;DHT22;13446;50.926;5.332;2022-07-18T11:17:56;46.70;22.50
25554;DHT22;13446;50.926;5.332;2022-07-18T11:23:20;46.30;21.70
25554;DHT22;13446;50.926;5.332;2022-07-18T11:25:51;45.90;22.40
25554;DHT22;13446;50.926;5.332;2022-07-18T11:28:18;46.50;23.00
25554;DHT22;13446;50.926;5.332;2022-07-18T11:31:00;46.00;22.20
25554;DHT22;13446;50.926;5.332;2022-07-18T11:33:29;47.10;22.00
25554;DHT22;13446;50.926;5.332;2022-07-18T11:36:08;47.10;21.70
25554;DHT22;13446;50.926;5.332;2022-07-18T11:38:35;47.10;21.40
25554;DHT22;13446;50.926;5.332;2022-07-18T11:41:02;46.80;21.60
25554;DHT22;13446;50.926;5.332;2022-07-18T11:43:28;46.60;22.20
25554;DHT22;13446;50.926;5.332;2022-07-18T11:46:04;45.70;22.60
25554;DHT22;13446;50.926;5.332;2022-07-18T11:48:31;45.90;22.00
25554;DHT22;13446;50.926;5.332;2022-07-18T11:50:57;45.20;22.70
25554;DHT22;13446;50.926;5.332;2022-07-18T11:53:22;45.70;22.40
25554;DHT22;13446;50.926;5.332;2022-07-18T11:55:49;46.10;22.40
25554;DHT22;13446;50.926;5.332;2022-07-18T11:58:16;46.50;21.90
25554;DHT22;13446;50.926;5.332;2022-07-18T12:00:43;46.40;22.10
25554;DHT22;13446;50.926;5.332;2022-07-18T12:03:20;45.00;23.00
25554;DHT22;13446;50.926;5.332;2022-07-18T12:05:51;45.70;23.00
25554;DHT22;13446;50.926;5.332;2022-07-18T12:08:34;46.20;21.70
25554;DHT22;13446;50.926;5.332;2022-07-18T12:16:37;45.70;22.10
25554;DHT22;13446;50.926;5.332;2022-07-18T12:19:06;45.60;22.50
25554;DHT22;13446;50.926;5.332;2022-07-18T12:27:24;45.40;22.70
25554;DHT22;13446;50.926;5.332;2022-07-18T12:32:55;45.60;22.70
25554;DHT22;13446;50.926;5.332;2022-07-18T12:35:34;46.20;23.10
25554;DHT22;13446;50.926;5.332;2022-07-18T12:43:25;45.30;22.90
25554;DHT22;13446;50.926;5.332;2022-07-18T12:45:51;44.30;24.30
25554;DHT22;13446;50.926;5.332;2022-07-18T12:48:17;44.80;24.80
25554;DHT22;13446;50.926;5.332;2022-07-18T12:50:43;44.90;22.90
25554;DHT22;13446;50.926;5.332;2022-07-18T12:53:10;44.20;23.10
25554;DHT22;13446;50.926;5.332;2022-07-18T12:55:36;44.90;23.30
25554;DHT22;13446;50.926;5.332;2022-07-18T12:58:03;45.10;22.70
25554;DHT22;13446;50.926;5.332;2022-07-18T13:00:29;44.70;22.70
25554;DHT22;13446;50.926;5.332;2022-07-18T13:02:56;45.10;22.20
25554;DHT22;13446;50.926;5.332;2022-07-18T13:05:24;45.40;21.60
25554;DHT22;13446;50.926;5.332;2022-07-18T13:07:50;45.10;22.20
25554;DHT22;13446;50.926;5.332;2022-07-18T13:10:15;44.50;23.00
25554;DHT22;13446;50.926;5.332;2022-07-18T13:12:41;44.10;22.70
25554;DHT22;13446;50.926;5.332;2022-07-18T13:15:08;43.70;23.00
25554;DHT22;13446;50.926;5.332;2022-07-18T13:17:34;42.80;23.10
25554;DHT22;13446;50.926;5.332;2022-07-18T13:20:01;41.50;23.90
25554;DHT22;13446;50.926;5.332;2022-07-18T13:22:26;41.00;23.40
25554;DHT22;13446;50.926;5.332;2022-07-18T13:24:52;40.90;23.90
25554;DHT22;13446;50.926;5.332;2022-07-18T13:27:18;40.30;24.90
25554;DHT22;13446;50.926;5.332;2022-07-18T13:29:46;39.90;24.60
25554;DHT22;13446;50.926;5.332;2022-07-18T13:32:12;39.60;24.30
25554;DHT22;13446;50.926;5.332;2022-07-18T13:34:38;39.30;24.70
25554;DHT22;13446;50.926;5.332;2022-07-18T13:37:04;39.30;25.40
25554;DHT22;13446;50.926;5.332;2022-07-18T13:39:29;38.70;25.10
25554;DHT22;13446;50.926;5.332;2022-07-18T13:41:55;38.70;25.00
25554;DHT22;13446;50.926;5.332;2022-07-18T13:44:21;38.40;24.90
25554;DHT22;13446;50.926;5.332;2022-07-18T13:46:46;38.60;25.30
25554;DHT22;13446;50.926;5.332;2022-07-18T13:49:12;38.30;25.40
25554;DHT22;13446;50.926;5.332;2022-07-18T13:51:38;38.20;25.30
25554;DHT22;13446;50.926;5.332;2022-07-18T13:54:05;38.20;25.30
25554;DHT22;13446;50.926;5.332;2022-07-18T13:56:31;37.80;25.30
25554;DHT22;13446;50.926;5.332;2022-07-18T13:58:57;38.00;26.00
25554;DHT22;13446;50.926;5.332;2022-07-18T14:01:23;38.10;26.00
25554;DHT22;13446;50.926;5.332;2022-07-18T14:03:49;38.20;25.70
25554;DHT22;13446;50.926;5.332;2022-07-18T14:06:14;38.40;25.10
25554;DHT22;13446;50.926;5.332;2022-07-18T14:08:40;38.50;25.40
25554;DHT22;13446;50.926;5.332;2022-07-18T14:11:06;38.20;25.90
25554;DHT22;13446;50.926;5.332;2022-07-18T14:13:33;38.00;25.50
25554;DHT22;13446;50.926;5.332;2022-07-18T14:16:10;38.20;25.50
25554;DHT22;13446;50.926;5.332;2022-07-18T14:18:36;38.10;25.80
25554;DHT22;13446;50.926;5.332;2022-07-18T14:21:02;37.50;25.70
25554;DHT22;13446;50.926;5.332;2022-07-18T14:23:27;37.40;26.10
25554;DHT22;13446;50.926;5.332;2022-07-18T14:25:53;37.20;25.90
25554;DHT22;13446;50.926;5.332;2022-07-18T14:28:19;36.90;25.90
25554;DHT22;13446;50.926;5.332;2022-07-18T14:30:44;37.00;26.50
25554;DHT22;13446;50.926;5.332;2022-07-18T14:33:10;37.00;25.70
25554;DHT22;13446;50.926;5.332;2022-07-18T14:35:36;37.20;26.50
25554;DHT22;13446;50.926;5.332;2022-07-18T14:38:01;36.60;26.10
25554;DHT22;13446;50.926;5.332;2022-07-18T14:40:27;36.80;26.80
25554;DHT22;13446;50.926;5.332;2022-07-18T14:42:53;37.00;26.60
25554;DHT22;13446;50.926;5.332;2022-07-18T14:45:18;37.20;26.20
25554;DHT22;13446;50.926;5.332;2022-07-18T14:47:44;37.40;26.50
25554;DHT22;13446;50.926;5.332;2022-07-18T14:50:10;37.50;26.40
25554;DHT22;13446;50.926;5.332;2022-07-18T14:52:37;37.50;26.10
25554;DHT22;13446;50.926;5.332;2022-07-18T14:55:04;37.40;25.80
25554;DHT22;13446;50.926;5.332;2022-07-18T14:57:30;37.30;25.90
25554;DHT22;13446;50.926;5.332;2022-07-18T14:59:56;36.90;26.40
25554;DHT22;13446;50.926;5.332;2022-07-18T15:02:22;36.70;26.50
25554;DHT22;13446;50.926;5.332;2022-07-18T15:04:47;36.90;26.20
25554;DHT22;13446;50.926;5.332;2022-07-18T15:07:13;36.90;26.20
25554;DHT22;13446;50.926;5.332;2022-07-18T15:09:39;36.70;26.40
25554;DHT22;13446;50.926;5.332;2022-07-18T15:12:05;36.70;26.30
25554;DHT22;13446;50.926;5.332;2022-07-18T15:14:30;36.60;26.30
25554;DHT22;13446;50.926;5.332;2022-07-18T15:16:56;36.70;26.60
25554;DHT22;13446;50.926;5.332;2022-07-18T15:19:22;36.70;26.50
25554;DHT22;13446;50.926;5.332;2022-07-18T15:21:47;36.50;26.80
25554;DHT22;13446;50.926;5.332;2022-07-18T15:24:13;36.30;27.50
25554;DHT22;13446;50.926;5.332;2022-07-18T15:26:38;36.60;26.80
25554;DHT22;13446;50.926;5.332;2022-07-18T15:29:04;36.30;27.00
25554;DHT22;13446;50.926;5.332;2022-07-18T15:31:32;36.20;27.20
25554;DHT22;13446;50.926;5.332;2022-07-18T15:33:58;36.20;27.20
25554;DHT22;13446;50.926;5.332;2022-07-18T15:36:23;36.40;26.80
25554;DHT22;13446;50.926;5.332;2022-07-18T15:38:49;36.30;27.00
25554;DHT22;13446;50.926;5.332;2022-07-18T15:41:15;36.40;27.30
25554;DHT22;13446;50.926;5.332;2022-07-18T15:43:45;36.10;27.30
25554;DHT22;13446;50.926;5.332;2022-07-18T15:46:12;35.70;27.80
25554;DHT22;13446;50.926;5.332;2022-07-18T15:48:44;35.70;27.80
25554;DHT22;13446;50.926;5.332;2022-07-18T15:51:10;35.70;27.60
25554;DHT22;13446;50.926;5.332;2022-07-18T15:53:36;35.40;27.90
25554;DHT22;13446;50.926;5.332;2022-07-18T15:56:03;35.60;27.70
25554;DHT22;13446;50.926;5.332;2022-07-18T15:58:29;35.70;27.50
25554;DHT22;13446;50.926;5.332;2022-07-18T16:00:56;35.60;27.80
25554;DHT22;13446;50.926;5.332;2022-07-18T16:03:22;35.80;27.80
25554;DHT22;13446;50.926;5.332;2022-07-18T16:05:48;36.10;27.40
25554;DHT22;13446;50.926;5.332;2022-07-18T16:08:14;36.10;27.60
25554;DHT22;13446;50.926;5.332;2022-07-18T16:10:39;36.00;27.60
25554;DHT22;13446;50.926;5.332;2022-07-18T16:13:05;36.10;27.60
25554;DHT22;13446;50.926;5.332;2022-07-18T16:15:31;36.00;27.90
25554;DHT22;13446;50.926;5.332;2022-07-18T16:17:56;35.90;27.50